createdAt,value
2015-12-30T00:00:08.138Z,62.88
2015-12-30T00:00:24.731Z,62.97
2015-12-30T00:00:40.028Z,63.35
2015-12-30T00:01:09.828Z,63.16
2015-12-30T00:01:25.734Z,63.35
2015-12-30T00:01:41.297Z,63.35
2015-12-30T00:02:26.314Z,63.54
2015-12-30T00:02:41.924Z,63.35
2015-12-30T00:02:58.049Z,63.35
2015-12-30T00:03:13.521Z,63.54
2015-12-30T00:03:30.052Z,63.44
2015-12-30T00:03:45.974Z,63.44
2015-12-30T00:04:01.367Z,63.44
2015-12-30T00:04:17.289Z,63.25
2015-12-30T00:04:33.461Z,63.54
2015-12-30T00:05:03.338Z,63.44
2015-12-30T00:05:18.932Z,63.44
2015-12-30T00:05:48.197Z,63.44
2015-12-30T00:06:03.795Z,63.16
2015-12-30T00:06:19.436Z,63.35
2015-12-30T00:06:35.061Z,63.25
2015-12-30T00:06:50.920Z,63.44
2015-12-30T00:07:06.922Z,63.35
2015-12-30T00:07:22.922Z,63.44
2015-12-30T00:07:38.157Z,63.25
2015-12-30T00:07:53.610Z,63.35
2015-12-30T00:08:09.425Z,63.25
2015-12-30T00:08:25.394Z,63.44
2015-12-30T00:08:57.660Z,63.35
2015-12-30T00:09:13.287Z,63.54
2015-12-30T00:09:28.974Z,63.16
2015-12-30T00:09:44.083Z,63.35
2015-12-30T00:10:00.349Z,63.44
2015-12-30T00:10:16.008Z,63.35
2015-12-30T00:10:31.493Z,63.54
2015-12-30T00:10:47.258Z,63.54
2015-12-30T00:11:03.024Z,63.25
2015-12-30T00:11:18.746Z,63.35
2015-12-30T00:11:34.761Z,63.25
2015-12-30T00:12:03.902Z,63.35
2015-12-30T00:12:20.123Z,63.44
2015-12-30T00:12:35.998Z,63.25
2015-12-30T00:12:51.591Z,63.54
2015-12-30T00:13:07.185Z,63.91
2015-12-30T00:13:22.891Z,63.91
2015-12-30T00:13:38.282Z,63.91
2015-12-30T00:13:53.735Z,63.91
2015-12-30T00:14:09.285Z,63.73
2015-12-30T00:14:24.410Z,63.91
2015-12-30T00:14:40.019Z,63.91
2015-12-30T00:14:55.894Z,64.01
2015-12-30T00:15:12.006Z,63.54
2015-12-30T00:15:27.599Z,63.35
2015-12-30T00:15:43.381Z,63.54
2015-12-30T00:15:58.881Z,63.16
2015-12-30T00:16:15.102Z,63.06
2015-12-30T00:16:30.759Z,62.59
2015-12-30T00:16:46.774Z,62.5
2015-12-30T00:17:02.571Z,62.69
2015-12-30T00:17:18.184Z,62.59
2015-12-30T00:17:33.809Z,62.4
2015-12-30T00:17:49.434Z,62.5
2015-12-30T00:18:05.246Z,62.31
2015-12-30T00:18:20.687Z,62.59
2015-12-30T00:18:36.124Z,62.31
2015-12-30T00:18:51.905Z,62.31
2015-12-30T00:19:07.780Z,62.31
2015-12-30T00:19:23.502Z,62.5
2015-12-30T00:19:39.127Z,62.5
2015-12-30T00:19:55.236Z,62.4
2015-12-30T00:20:10.611Z,62.59
2015-12-30T00:20:26.302Z,62.78
2015-12-30T00:20:41.708Z,62.59
2015-12-30T00:20:57.443Z,62.69
2015-12-30T00:21:16.130Z,63.35
2015-12-30T00:21:31.773Z,63.16
2015-12-30T00:21:47.398Z,63.25
2015-12-30T00:22:03.023Z,63.06
2015-12-30T00:22:18.273Z,63.06
2015-12-30T00:22:33.932Z,62.78
2015-12-30T00:23:03.291Z,63.35
2015-12-30T00:23:18.713Z,63.35
2015-12-30T00:23:34.263Z,63.25
2015-12-30T00:23:50.091Z,63.44
2015-12-30T00:24:05.966Z,63.54
2015-12-30T00:24:21.591Z,63.25
2015-12-30T00:24:37.204Z,63.35
2015-12-30T00:24:52.844Z,63.44
2015-12-30T00:25:08.407Z,63.54
2015-12-30T00:25:23.860Z,63.44
2015-12-30T00:25:39.284Z,62.97
2015-12-30T00:25:54.846Z,63.16
2015-12-30T00:26:10.502Z,63.16
2015-12-30T00:26:26.505Z,63.06
2015-12-30T00:26:42.177Z,62.78
2015-12-30T00:26:57.880Z,62.78
2015-12-30T00:27:13.474Z,62.59
2015-12-30T00:27:28.929Z,62.5
2015-12-30T00:27:44.757Z,62.59
2015-12-30T00:28:30.698Z,62.4
2015-12-30T00:28:46.104Z,62.4
2015-12-30T00:29:01.839Z,62.4
2015-12-30T00:29:17.526Z,62.5
2015-12-30T00:29:32.301Z,62.4
2015-12-30T00:29:47.973Z,62.4
2015-12-30T00:30:03.583Z,62.4
2015-12-30T00:30:19.301Z,62.31
2015-12-30T00:30:35.885Z,62.4
2015-12-30T00:30:51.463Z,62.69
2015-12-30T00:31:06.635Z,62.4
2015-12-30T00:31:22.135Z,62.4
2015-12-30T00:31:38.049Z,62.59
2015-12-30T00:31:53.158Z,61.74
2015-12-30T00:32:08.877Z,62.12
2015-12-30T00:32:23.924Z,62.03
2015-12-30T00:32:39.634Z,62.21
2015-12-30T00:32:55.165Z,62.03
2015-12-30T00:33:11.415Z,61.74
2015-12-30T00:33:27.399Z,61.74
2015-12-30T00:33:43.187Z,61.93
2015-12-30T00:33:58.953Z,61.84
2015-12-30T00:34:14.703Z,61.93
2015-12-30T00:34:30.359Z,62.31
2015-12-30T00:34:45.887Z,61.93
2015-12-30T00:35:01.825Z,62.12
2015-12-30T00:35:17.965Z,61.84
2015-12-30T00:35:33.122Z,62.12
2015-12-30T00:35:49.121Z,61.93
2015-12-30T00:36:04.761Z,61.84
2015-12-30T00:36:19.902Z,62.03
2015-12-30T00:36:35.496Z,61.84
2015-12-30T00:36:50.822Z,61.84
2015-12-30T00:37:06.431Z,61.93
2015-12-30T00:37:22.306Z,61.93
2015-12-30T00:37:37.791Z,61.93
2015-12-30T00:37:54.055Z,62.03
2015-12-30T00:38:09.743Z,62.21
2015-12-30T00:38:25.352Z,62.03
2015-12-30T00:38:40.647Z,61.84
2015-12-30T00:38:56.209Z,61.74
2015-12-30T00:39:12.069Z,61.65
2015-12-30T00:39:27.741Z,61.55
2015-12-30T00:39:43.243Z,61.74
2015-12-30T00:39:58.821Z,61.55
2015-12-30T00:40:15.305Z,61.46
2015-12-30T00:40:30.852Z,61.55
2015-12-30T00:40:46.447Z,61.46
2015-12-30T00:41:02.072Z,61.74
2015-12-30T00:41:17.681Z,61.65
2015-12-30T00:41:33.087Z,61.74
2015-12-30T00:41:48.963Z,61.84
2015-12-30T00:42:04.620Z,61.84
2015-12-30T00:42:20.307Z,62.03
2015-12-30T00:42:35.854Z,61.65
2015-12-30T00:42:52.214Z,61.74
2015-12-30T00:43:08.261Z,61.36
2015-12-30T00:43:23.621Z,61.46
2015-12-30T00:43:38.839Z,61.27
2015-12-30T00:43:54.420Z,61.55
2015-12-30T00:44:09.607Z,61.74
2015-12-30T00:44:24.951Z,61.74
2015-12-30T00:44:40.279Z,62.03
2015-12-30T00:44:55.874Z,61.93
2015-12-30T00:45:11.264Z,62.03
2015-12-30T00:45:27.874Z,62.03
2015-12-30T00:45:43.639Z,62.03
2015-12-30T00:45:58.985Z,62.12
2015-12-30T00:46:14.235Z,61.93
2015-12-30T00:46:30.048Z,62.31
2015-12-30T00:46:45.657Z,62.59
2015-12-30T00:47:00.925Z,62.31
2015-12-30T00:47:15.987Z,62.5
2015-12-30T00:47:31.534Z,62.59
2015-12-30T00:47:46.612Z,62.5
2015-12-30T00:48:02.130Z,62.4
2015-12-30T00:48:17.973Z,62.5
2015-12-30T00:48:34.005Z,62.21
2015-12-30T00:48:49.022Z,62.31
2015-12-30T00:49:04.663Z,62.31
2015-12-30T00:49:20.460Z,62.59
2015-12-30T00:49:36.335Z,62.31
2015-12-30T00:49:52.181Z,62.31
2015-12-30T00:50:07.915Z,62.59
2015-12-30T00:50:23.212Z,62.21
2015-12-30T00:50:38.571Z,62.21
2015-12-30T00:50:54.527Z,62.12
2015-12-30T00:51:09.902Z,61.93
2015-12-30T00:51:25.668Z,61.84
2015-12-30T00:51:40.465Z,61.55
2015-12-30T00:51:55.843Z,61.55
2015-12-30T00:52:11.077Z,61.18
2015-12-30T00:52:27.437Z,61.65
2015-12-30T00:52:42.937Z,61.65
2015-12-30T00:52:58.346Z,61.84
2015-12-30T00:53:14.236Z,61.84
2015-12-30T00:53:29.611Z,61.93
2015-12-30T00:53:44.971Z,61.93
2015-12-30T00:54:00.457Z,61.84
2015-12-30T00:54:15.738Z,61.84
2015-12-30T00:54:31.660Z,61.65
2015-12-30T00:54:46.848Z,61.65
2015-12-30T00:55:02.538Z,61.74
2015-12-30T00:55:17.866Z,61.65
2015-12-30T00:55:33.429Z,61.65
2015-12-30T00:55:49.007Z,61.65
2015-12-30T00:56:04.588Z,61.74
2015-12-30T00:56:20.198Z,61.65
2015-12-30T00:56:36.135Z,61.74
2015-12-30T00:56:51.729Z,61.55
2015-12-30T00:57:06.857Z,61.74
2015-12-30T00:57:22.357Z,61.74
2015-12-30T00:57:38.138Z,61.27
2015-12-30T00:57:53.263Z,61.36
2015-12-30T00:58:09.266Z,61.27
2015-12-30T00:58:24.797Z,61.18
2015-12-30T00:58:40.079Z,61.36
2015-12-30T00:58:55.641Z,61.18
2015-12-30T00:59:11.065Z,61.18
2015-12-30T00:59:26.956Z,61.46
2015-12-30T00:59:42.549Z,61.36
2015-12-30T00:59:58.081Z,61.74
2015-12-30T01:00:57.177Z,61.36
2015-12-30T01:01:12.477Z,61.36
2015-12-30T01:01:27.805Z,61.55
2015-12-30T01:01:43.680Z,61.27
2015-12-30T01:01:58.618Z,61.65
2015-12-30T01:02:13.652Z,61.55
2015-12-30T01:02:29.886Z,61.74
2015-12-30T01:02:45.293Z,62.12
2015-12-30T01:03:00.511Z,61.84
2015-12-30T01:03:16.295Z,61.84
2015-12-30T01:03:31.701Z,62.03
2015-12-30T01:03:46.998Z,62.12
2015-12-30T01:04:02.623Z,62.03
2015-12-30T01:04:17.860Z,61.84
2015-12-30T01:04:34.329Z,62.4
2015-12-30T01:04:49.610Z,62.5
2015-12-30T01:05:04.657Z,62.4
2015-12-30T01:05:20.426Z,62.31
2015-12-30T01:05:35.863Z,62.5
2015-12-30T01:05:51.566Z,62.31
2015-12-30T01:06:07.304Z,62.4
2015-12-30T01:06:23.007Z,62.4
2015-12-30T01:06:38.882Z,62.5
2015-12-30T01:06:54.038Z,62.4
2015-12-30T01:07:09.212Z,62.59
2015-12-30T01:07:24.368Z,62.69
2015-12-30T01:07:39.993Z,62.78
2015-12-30T01:07:55.071Z,62.69
2015-12-30T01:08:10.699Z,62.59
2015-12-30T01:08:25.871Z,62.59
2015-12-30T01:08:41.325Z,62.88
2015-12-30T01:08:56.919Z,62.5
2015-12-30T01:09:12.515Z,62.78
2015-12-30T01:09:28.452Z,62.5
2015-12-30T01:09:43.968Z,62.5
2015-12-30T01:09:59.515Z,62.31
2015-12-30T01:10:14.784Z,61.93
2015-12-30T01:10:30.284Z,61.84
2015-12-30T01:10:45.675Z,61.84
2015-12-30T01:11:01.503Z,61.74
2015-12-30T01:11:17.694Z,61.36
2015-12-30T01:11:33.100Z,61.84
2015-12-30T01:11:49.694Z,61.36
2015-12-30T01:12:05.381Z,61.46
2015-12-30T01:12:20.914Z,61.27
2015-12-30T01:12:36.258Z,61.36
2015-12-30T01:12:52.461Z,60.99
2015-12-30T01:13:07.571Z,60.42
2015-12-30T01:13:23.495Z,60.52
2015-12-30T01:13:38.745Z,60.42
2015-12-30T01:13:54.213Z,60.33
2015-12-30T01:14:09.916Z,60.61
2015-12-30T01:14:25.513Z,60.71
2015-12-30T01:14:40.669Z,60.33
2015-12-30T01:14:56.248Z,60.42
2015-12-30T01:15:11.794Z,60.42
2015-12-30T01:15:27.532Z,60.05
2015-12-30T01:15:57.219Z,60.14
2015-12-30T01:16:12.657Z,59.95
2015-12-30T01:16:28.378Z,60.14
2015-12-30T01:16:43.721Z,60.14
2015-12-30T01:16:59.174Z,60.24
2015-12-30T01:17:14.284Z,60.24
2015-12-30T01:17:29.865Z,60.14
2015-12-30T01:17:45.506Z,60.14
2015-12-30T01:18:00.927Z,59.58
2015-12-30T01:18:15.881Z,59.86
2015-12-30T01:18:34.447Z,59.58
2015-12-30T01:18:50.275Z,59.67
2015-12-30T01:19:05.494Z,59.58
2015-12-30T01:19:20.869Z,59.67
2015-12-30T01:19:36.918Z,59.48
2015-12-30T01:19:52.262Z,59.39
2015-12-30T01:20:07.558Z,59.58
2015-12-30T01:20:23.561Z,59.67
2015-12-30T01:20:39.155Z,59.39
2015-12-30T01:20:54.530Z,59.48
2015-12-30T01:21:09.452Z,59.39
2015-12-30T01:21:25.064Z,59.39
2015-12-30T01:21:40.377Z,59.39
2015-12-30T01:22:30.051Z,59.67
2015-12-30T01:22:46.145Z,59.77
2015-12-30T01:23:01.848Z,59.39
2015-12-30T01:23:16.723Z,59.48
2015-12-30T01:23:32.241Z,59.58
2015-12-30T01:23:47.710Z,59.48
2015-12-30T01:24:03.194Z,59.48
2015-12-30T01:24:18.757Z,59.48
2015-12-30T01:24:34.150Z,59.48
2015-12-30T01:24:49.337Z,59.39
2015-12-30T01:25:04.915Z,59.58
2015-12-30T01:25:20.790Z,59.48
2015-12-30T01:25:36.199Z,59.58
2015-12-30T01:25:51.309Z,59.01
2015-12-30T01:26:06.559Z,59.39
2015-12-30T01:26:22.106Z,59.2
2015-12-30T01:26:37.952Z,58.73
2015-12-30T01:26:53.702Z,58.73
2015-12-30T01:27:38.440Z,58.82
2015-12-30T01:27:53.877Z,58.16
2015-12-30T01:28:09.987Z,58.16
2015-12-30T01:28:25.440Z,58.26
2015-12-30T01:28:40.473Z,58.35
2015-12-30T01:28:55.801Z,58.45
2015-12-30T01:29:11.520Z,58.26
2015-12-30T01:29:26.770Z,58.26
2015-12-30T01:29:42.227Z,58.26
2015-12-30T01:29:57.665Z,57.97
2015-12-30T01:30:13.743Z,57.97
2015-12-30T01:30:29.008Z,57.88
2015-12-30T01:30:44.729Z,57.97
2015-12-30T01:31:00.088Z,58.16
2015-12-30T01:31:15.245Z,58.07
2015-12-30T01:31:31.135Z,57.88
2015-12-30T01:31:46.295Z,57.88
2015-12-30T01:32:01.763Z,57.97
2015-12-30T01:32:17.498Z,57.88
2015-12-30T01:32:33.373Z,57.88
2015-12-30T01:32:48.812Z,58.16
2015-12-30T01:33:04.312Z,57.97
2015-12-30T01:33:19.890Z,58.07
2015-12-30T01:33:35.218Z,58.07
2015-12-30T01:33:53.784Z,58.16
2015-12-30T01:34:09.128Z,57.88
2015-12-30T01:34:24.378Z,57.78
2015-12-30T01:34:53.771Z,57.78
2015-12-30T01:35:08.865Z,57.78
2015-12-30T01:35:24.037Z,58.16
2015-12-30T01:35:39.556Z,58.16
2015-12-30T01:35:54.884Z,58.16
2015-12-30T01:36:26.899Z,57.78
2015-12-30T01:36:42.479Z,57.97
2015-12-30T01:36:57.886Z,57.97
2015-12-30T01:37:13.479Z,57.69
2015-12-30T01:37:28.870Z,57.97
2015-12-30T01:37:44.467Z,57.88
2015-12-30T01:38:00.279Z,58.16
2015-12-30T01:38:19.123Z,58.26
2015-12-30T01:38:34.857Z,57.69
2015-12-30T01:38:50.157Z,57.97
2015-12-30T01:39:05.345Z,57.78
2015-12-30T01:39:20.923Z,57.97
2015-12-30T01:39:36.235Z,58.35
2015-12-30T01:39:51.722Z,58.16
2015-12-30T01:40:07.066Z,58.26
2015-12-30T01:40:22.487Z,58.26
2015-12-30T01:40:38.191Z,58.45
2015-12-30T01:40:53.334Z,58.45
2015-12-30T01:41:08.756Z,58.07
2015-12-30T01:41:24.459Z,58.45
2015-12-30T01:41:39.522Z,58.82
2015-12-30T01:41:54.681Z,58.63
2015-12-30T01:42:09.993Z,58.92
2015-12-30T01:42:25.634Z,58.73
2015-12-30T01:42:41.228Z,58.54
2015-12-30T01:42:56.575Z,59.01
2015-12-30T01:43:12.168Z,58.92
2015-12-30T01:43:27.325Z,59.11
2015-12-30T01:43:43.075Z,59.3
2015-12-30T01:43:58.468Z,59.48
2015-12-30T01:44:14.015Z,59.67
2015-12-30T01:44:29.265Z,59.58
2015-12-30T01:44:45.015Z,59.58
2015-12-30T01:45:00.423Z,59.39
2015-12-30T01:45:15.923Z,60.33
2015-12-30T01:45:34.736Z,60.05
2015-12-30T01:45:50.567Z,60.14
2015-12-30T01:46:05.770Z,60.05
2015-12-30T01:46:20.786Z,60.33
2015-12-30T01:46:37.067Z,60.14
2015-12-30T01:46:52.398Z,60.24
2015-12-30T01:47:07.617Z,60.24
2015-12-30T01:47:22.976Z,60.33
2015-12-30T01:47:38.164Z,60.71
2015-12-30T01:47:53.901Z,60.52
2015-12-30T01:48:08.807Z,60.52
2015-12-30T01:48:25.370Z,60.52
2015-12-30T01:48:40.979Z,60.52
2015-12-30T01:49:10.388Z,60.52
2015-12-30T01:49:26.420Z,60.24
2015-12-30T01:49:41.263Z,60.33
2015-12-30T01:49:56.687Z,59.95
2015-12-30T01:50:11.812Z,59.86
2015-12-30T01:50:27.422Z,60.14
2015-12-30T01:50:42.562Z,60.14
2015-12-30T01:50:57.612Z,59.95
2015-12-30T01:51:12.456Z,59.58
2015-12-30T01:51:27.550Z,59.3
2015-12-30T01:51:43.128Z,59.39
2015-12-30T01:52:12.053Z,59.2
2015-12-30T01:52:27.662Z,59.11
2015-12-30T01:52:42.787Z,59.11
2015-12-30T01:52:58.162Z,59.2
2015-12-30T01:53:13.680Z,59.3
2015-12-30T01:53:29.773Z,59.2
2015-12-30T01:53:45.758Z,59.11
2015-12-30T01:54:00.945Z,58.82
2015-12-30T01:54:16.730Z,58.73
2015-12-30T01:54:31.933Z,58.82
2015-12-30T01:54:47.167Z,58.92
2015-12-30T01:55:30.654Z,58.63
2015-12-30T01:55:45.998Z,58.35
2015-12-30T01:56:01.483Z,58.16
2015-12-30T01:56:16.829Z,57.88
2015-12-30T01:56:32.626Z,57.97
2015-12-30T01:56:47.626Z,57.6
2015-12-30T01:57:02.845Z,57.88
2015-12-30T01:57:18.269Z,57.88
2015-12-30T01:57:33.441Z,57.6
2015-12-30T01:57:48.316Z,57.22
2015-12-30T01:58:03.128Z,57.31
2015-12-30T01:58:19.069Z,57.41
2015-12-30T01:58:34.319Z,57.22
2015-12-30T01:58:49.694Z,57.31
2015-12-30T01:59:04.944Z,57.03
2015-12-30T01:59:20.447Z,57.22
2015-12-30T01:59:36.009Z,57.03
2015-12-30T01:59:51.087Z,57.12
2015-12-30T02:00:06.259Z,57.5
2015-12-30T02:00:22.214Z,57.31
2015-12-30T02:00:37.449Z,57.31
2015-12-30T02:00:52.621Z,57.5
2015-12-30T02:01:11.092Z,57.12
2015-12-30T02:01:26.316Z,56.75
2015-12-30T02:01:41.523Z,56.46
2015-12-30T02:01:56.976Z,56.37
2015-12-30T02:02:12.182Z,55.9
2015-12-30T02:02:28.338Z,55.62
2015-12-30T02:02:47.151Z,55.36
2015-12-30T02:03:03.260Z,54.8
2015-12-30T02:03:19.763Z,54.51
2015-12-30T02:03:35.060Z,54.51
2015-12-30T02:03:50.248Z,54.51
2015-12-30T02:04:19.657Z,54.42
2015-12-30T02:04:35.313Z,54.14
2015-12-30T02:04:50.782Z,53.85
2015-12-30T02:05:05.673Z,53.95
2015-12-30T02:05:20.456Z,53.29
2015-12-30T02:05:35.643Z,52.91
2015-12-30T02:05:51.034Z,52.72
2015-12-30T02:06:06.659Z,52.53
2015-12-30T02:06:51.099Z,51.78
2015-12-30T02:07:06.959Z,51.5
2015-12-30T02:07:22.306Z,51.5
2015-12-30T02:07:37.306Z,51.4
2015-12-30T02:07:53.915Z,51.87
2015-12-30T02:08:10.774Z,51.59
2015-12-30T02:08:26.229Z,51.87
2015-12-30T02:08:41.417Z,51.78
2015-12-30T02:08:56.948Z,52.15
2015-12-30T02:09:12.948Z,52.15
2015-12-30T02:09:28.358Z,52.62
2015-12-30T02:09:44.515Z,52.91
2015-12-30T02:09:59.905Z,53.26
2015-12-30T02:10:15.218Z,53.29
2015-12-30T02:10:30.626Z,53.26
2015-12-30T02:10:46.470Z,53.95
2015-12-30T02:11:01.454Z,53.92
2015-12-30T02:11:16.798Z,53.92
2015-12-30T02:11:32.145Z,53.92
2015-12-30T02:11:47.395Z,54.49
2015-12-30T02:12:03.457Z,54.58
2015-12-30T02:12:22.254Z,55.43
2015-12-30T02:12:37.991Z,55.05
2015-12-30T02:12:53.148Z,55.33
2015-12-30T02:13:08.820Z,54.77
2015-12-30T02:13:24.085Z,54.68
2015-12-30T02:13:39.165Z,54.77
2015-12-30T02:13:54.743Z,54.68
2015-12-30T02:14:10.837Z,54.58
2015-12-30T02:14:26.040Z,54.68
2015-12-30T02:14:41.090Z,54.86
2015-12-30T02:14:56.825Z,54.58
2015-12-30T02:15:12.481Z,54.3
2015-12-30T02:15:28.124Z,54.49
2015-12-30T02:15:43.218Z,54.3
2015-12-30T02:16:01.406Z,53.83
2015-12-30T02:16:16.703Z,53.73
2015-12-30T02:16:32.081Z,53.38
2015-12-30T02:17:01.018Z,52.81
2015-12-30T02:17:16.877Z,52.72
2015-12-30T02:17:32.317Z,52.72
2015-12-30T02:17:47.942Z,53.29
2015-12-30T02:18:03.379Z,53.57
2015-12-30T02:18:18.973Z,53.92
2015-12-30T02:18:34.367Z,53.85
2015-12-30T02:18:49.976Z,53.73
2015-12-30T02:19:05.836Z,53.83
2015-12-30T02:19:50.760Z,53.95
2015-12-30T02:20:05.979Z,53.85
2015-12-30T02:20:21.401Z,53.76
2015-12-30T02:20:50.747Z,53.85
2015-12-30T02:21:06.137Z,53.95
2015-12-30T02:21:21.231Z,53.38
2015-12-30T02:21:37.063Z,53
2015-12-30T02:21:52.407Z,53.19
2015-12-30T02:22:07.735Z,53.29
2015-12-30T02:22:23.095Z,53
2015-12-30T02:22:38.503Z,52.81
2015-12-30T02:22:53.597Z,53
2015-12-30T02:23:09.222Z,52.81
2015-12-30T02:23:25.815Z,52.81
2015-12-30T02:23:41.131Z,52.72
2015-12-30T02:23:56.990Z,53
2015-12-30T02:24:12.084Z,52.62
2015-12-30T02:24:28.037Z,52.62
2015-12-30T02:24:43.289Z,52.81
2015-12-30T02:24:58.445Z,51.87
2015-12-30T02:25:14.555Z,51.87
2015-12-30T02:25:30.070Z,51.5
2015-12-30T02:25:45.245Z,51.59
2015-12-30T02:26:00.448Z,51.59
2015-12-30T02:26:16.042Z,51.12
2015-12-30T02:26:31.433Z,51.12
2015-12-30T02:26:46.686Z,50.93
2015-12-30T02:27:02.061Z,50.65
2015-12-30T02:27:17.717Z,50.36
2015-12-30T02:27:32.842Z,50.27
2015-12-30T02:27:48.157Z,49.89
2015-12-30T02:28:17.314Z,49.32
2015-12-30T02:28:32.986Z,49.04
2015-12-30T02:28:48.379Z,48.95
2015-12-30T02:29:03.801Z,49.14
2015-12-30T02:29:18.879Z,49.32
2015-12-30T02:29:34.785Z,49.23
2015-12-30T02:29:50.241Z,49.99
2015-12-30T02:30:05.195Z,49.99
2015-12-30T02:30:21.695Z,49.89
2015-12-30T02:30:36.913Z,50.27
2015-12-30T02:30:52.213Z,50.65
2015-12-30T02:31:13.745Z,51.03
2015-12-30T02:31:29.495Z,51.12
2015-12-30T02:31:45.291Z,51.12
2015-12-30T02:32:00.607Z,51.03
2015-12-30T02:32:18.357Z,51.21
2015-12-30T02:32:33.669Z,51.21
2015-12-30T02:32:48.435Z,51.31
2015-12-30T02:33:03.734Z,51.31
2015-12-30T02:33:19.546Z,51.5
2015-12-30T02:33:34.937Z,51.59
2015-12-30T02:33:50.437Z,51.87
2015-12-30T02:34:06.518Z,51.59
2015-12-30T02:34:22.534Z,51.59
2015-12-30T02:34:37.706Z,51.78
2015-12-30T02:34:52.974Z,51.97
2015-12-30T02:35:08.240Z,52.25
2015-12-30T02:35:24.599Z,51.97
2015-12-30T02:35:40.240Z,52.25
2015-12-30T02:35:55.304Z,52.34
2015-12-30T02:36:40.304Z,52.98
2015-12-30T02:36:56.371Z,53.17
2015-12-30T02:37:25.652Z,53.92
2015-12-30T02:37:41.215Z,53.83
2015-12-30T02:37:56.982Z,53.83
2015-12-30T02:38:12.295Z,53.83
2015-12-30T02:38:27.545Z,53.73
2015-12-30T02:38:46.404Z,53.83
2015-12-30T02:39:01.720Z,53.83
2015-12-30T02:39:16.657Z,53.83
2015-12-30T02:39:32.235Z,53.92
2015-12-30T02:39:47.813Z,53.83
2015-12-30T02:40:03.332Z,53.95
2015-12-30T02:40:18.535Z,54.02
2015-12-30T02:40:33.801Z,53.95
2015-12-30T02:40:49.566Z,53.26
2015-12-30T02:41:04.976Z,53.29
2015-12-30T02:41:20.351Z,53.1
2015-12-30T02:41:35.351Z,52.91
2015-12-30T02:41:50.554Z,52.91
2015-12-30T02:42:05.056Z,52.72
2015-12-30T02:42:20.400Z,53.29
2015-12-30T02:42:36.165Z,53.29
2015-12-30T02:43:05.106Z,53.1
2015-12-30T02:43:20.637Z,53.19
2015-12-30T02:43:35.887Z,52.81
2015-12-30T02:43:51.090Z,52.91
2015-12-30T02:44:06.748Z,53
2015-12-30T02:44:22.030Z,52.72
2015-12-30T02:44:37.576Z,52.72
2015-12-30T02:44:53.123Z,52.81
2015-12-30T02:45:08.861Z,52.72
2015-12-30T02:45:24.142Z,52.98
2015-12-30T02:45:39.220Z,52.72
2015-12-30T02:45:54.220Z,52.81
2015-12-30T02:46:09.770Z,52.69
2015-12-30T02:46:25.301Z,52.69
2015-12-30T02:46:40.207Z,52.79
2015-12-30T02:46:55.161Z,52.88
2015-12-30T02:47:10.741Z,52.69
2015-12-30T02:47:25.413Z,52.79
2015-12-30T02:47:54.725Z,52.69
2015-12-30T02:48:10.525Z,52.6
2015-12-30T02:48:26.041Z,52.51
2015-12-30T02:48:41.212Z,52.06
2015-12-30T02:48:56.369Z,52.06
2015-12-30T02:49:11.965Z,51.78
2015-12-30T02:49:27.450Z,51.87
2015-12-30T02:49:42.965Z,51.87
2015-12-30T02:49:58.387Z,51.78
2015-12-30T02:50:14.172Z,51.68
2015-12-30T02:50:29.437Z,51.68
2015-12-30T02:50:44.718Z,51.5
2015-12-30T02:51:00.172Z,51.87
2015-12-30T02:51:15.753Z,51.5
2015-12-30T02:51:31.175Z,51.12
2015-12-30T02:51:48.018Z,51.21
2015-12-30T02:52:03.034Z,51.31
2015-12-30T02:52:21.927Z,51.68
2015-12-30T02:52:51.020Z,51.4
2015-12-30T02:53:06.180Z,51.21
2015-12-30T02:53:21.336Z,51.03
2015-12-30T02:53:36.383Z,50.93
2015-12-30T02:53:51.664Z,50.93
2015-12-30T02:54:06.870Z,50.84
2015-12-30T02:54:22.495Z,50.55
2015-12-30T02:54:37.792Z,50.18
2015-12-30T02:55:06.683Z,50.36
2015-12-30T02:55:22.154Z,50.36
2015-12-30T02:55:37.186Z,50.27
2015-12-30T02:55:52.389Z,50.18
2015-12-30T02:56:21.610Z,49.89
2015-12-30T02:56:37.314Z,49.8
2015-12-30T02:56:53.048Z,49.14
2015-12-30T02:57:08.454Z,49.23
2015-12-30T02:57:23.566Z,49.14
2015-12-30T02:57:53.331Z,48.95
2015-12-30T02:58:08.425Z,48.66
2015-12-30T02:58:24.006Z,48.85
2015-12-30T02:58:39.334Z,49.04
2015-12-30T02:58:55.022Z,49.04
2015-12-30T02:59:10.428Z,49.04
2015-12-30T02:59:26.150Z,48.85
2015-12-30T02:59:41.978Z,48.66
2015-12-30T02:59:57.243Z,48.76
2015-12-30T03:00:15.134Z,48.85
2015-12-30T03:00:30.230Z,48.85
2015-12-30T03:00:45.620Z,48.57
2015-12-30T03:01:00.917Z,48.95
2015-12-30T03:01:16.105Z,49.04
2015-12-30T03:01:31.202Z,48.95
2015-12-30T03:01:46.342Z,49.14
2015-12-30T03:02:01.858Z,48.95
2015-12-30T03:02:17.733Z,49.14
2015-12-30T03:02:33.158Z,48.85
2015-12-30T03:02:49.267Z,49.23
2015-12-30T03:03:04.736Z,49.32
2015-12-30T03:03:19.720Z,49.32
2015-12-30T03:03:35.364Z,49.32
2015-12-30T03:03:50.270Z,49.42
2015-12-30T03:04:05.926Z,49.42
2015-12-30T03:04:21.348Z,49.42
2015-12-30T03:04:37.070Z,49.14
2015-12-30T03:04:52.179Z,49.32
2015-12-30T03:05:07.976Z,48.95
2015-12-30T03:05:37.447Z,49.14
2015-12-30T03:05:52.822Z,49.14
2015-12-30T03:06:08.463Z,49.04
2015-12-30T03:06:23.853Z,48.95
2015-12-30T03:06:39.544Z,48.76
2015-12-30T03:06:54.841Z,48.38
2015-12-30T03:07:10.684Z,48.1
2015-12-30T03:07:26.716Z,48.19
2015-12-30T03:07:41.625Z,48.1
2015-12-30T03:07:57.265Z,48.1
2015-12-30T03:08:15.797Z,48.19
2015-12-30T03:08:37.517Z,48.1
2015-12-30T03:08:53.049Z,48.76
2015-12-30T03:09:08.596Z,48.76
2015-12-30T03:09:23.627Z,48.66
2015-12-30T03:09:38.942Z,48.85
2015-12-30T03:09:54.177Z,48.85
2015-12-30T03:10:10.005Z,48.19
2015-12-30T03:10:25.474Z,48.47
2015-12-30T03:10:41.008Z,48.29
2015-12-30T03:10:56.461Z,48.19
2015-12-30T03:11:41.525Z,48.1
2015-12-30T03:11:57.010Z,48.1
2015-12-30T03:12:12.275Z,48.19
2015-12-30T03:12:27.932Z,48
2015-12-30T03:12:43.950Z,48
2015-12-30T03:12:59.310Z,48.19
2015-12-30T03:13:14.653Z,48
2015-12-30T03:13:29.903Z,48
2015-12-30T03:13:45.031Z,47.91
2015-12-30T03:14:00.031Z,47.91
2015-12-30T03:14:15.110Z,47.91
2015-12-30T03:14:30.750Z,47.91
2015-12-30T03:14:46.519Z,48
2015-12-30T03:15:02.550Z,47.91
2015-12-30T03:15:31.847Z,47.81
2015-12-30T03:15:47.116Z,48
2015-12-30T03:16:19.100Z,47.91
2015-12-30T03:16:35.022Z,47.81
2015-12-30T03:16:49.275Z,47.72
2015-12-30T03:17:04.212Z,48
2015-12-30T03:17:19.556Z,47.63
2015-12-30T03:17:35.197Z,47.63
2015-12-30T03:17:50.808Z,47.34
2015-12-30T03:18:06.027Z,47.34
2015-12-30T03:18:20.949Z,47.44
2015-12-30T03:18:36.667Z,46.97
2015-12-30T03:18:52.013Z,46.5
2015-12-30T03:19:07.529Z,46.78
2015-12-30T03:19:22.748Z,46.5
2015-12-30T03:19:38.529Z,46.69
2015-12-30T03:19:54.017Z,46.69
2015-12-30T03:20:09.236Z,46.5
2015-12-30T03:20:24.595Z,46.4
2015-12-30T03:20:40.033Z,46.4
2015-12-30T03:20:59.832Z,46.5
2015-12-30T03:21:15.175Z,46.78
2015-12-30T03:21:29.910Z,46.69
2015-12-30T03:21:45.100Z,46.88
2015-12-30T03:22:00.928Z,46.22
2015-12-30T03:22:16.194Z,46.4
2015-12-30T03:22:31.444Z,46.31
2015-12-30T03:22:46.790Z,46.4
2015-12-30T03:23:02.009Z,46.03
2015-12-30T03:23:17.196Z,46.12
2015-12-30T03:23:32.602Z,46.12
2015-12-30T03:23:47.684Z,46.5
2015-12-30T03:24:03.247Z,46.69
2015-12-30T03:24:18.528Z,46.4
2015-12-30T03:24:34.481Z,46.12
2015-12-30T03:24:50.218Z,46.88
2015-12-30T03:25:05.405Z,46.88
2015-12-30T03:25:21.343Z,46.78
2015-12-30T03:25:36.561Z,46.5
2015-12-30T03:25:52.236Z,46.88
2015-12-30T03:26:08.299Z,46.59
2015-12-30T03:26:23.846Z,46.5
2015-12-30T03:26:39.533Z,46.88
2015-12-30T03:26:55.114Z,46.59
2015-12-30T03:27:10.474Z,46.88
2015-12-30T03:27:26.192Z,46.88
2015-12-30T03:27:41.849Z,46.59
2015-12-30T03:27:56.852Z,46.4
2015-12-30T03:28:12.414Z,46.5
2015-12-30T03:28:28.149Z,46.12
2015-12-30T03:28:46.727Z,46.22
2015-12-30T03:29:02.244Z,46.22
2015-12-30T03:29:17.916Z,46.03
2015-12-30T03:29:33.322Z,46.22
2015-12-30T03:29:48.822Z,46.5
2015-12-30T03:30:04.184Z,46.5
2015-12-30T03:30:19.965Z,46.88
2015-12-30T03:30:35.496Z,46.5
2015-12-30T03:30:51.324Z,46.5
2015-12-30T03:31:06.406Z,46.5
2015-12-30T03:31:22.124Z,46.59
2015-12-30T03:31:38.046Z,46.31
2015-12-30T03:31:53.515Z,46.22
2015-12-30T03:32:08.738Z,46.22
2015-12-30T03:32:27.863Z,46.5
2015-12-30T03:32:46.472Z,46.4
2015-12-30T03:33:02.380Z,46.5